Washington, District of Columbia
Traffic Map
Current Weather Conditions
Washington, District of Columbia
Overcast
Overcast
58°
Feels Like: 58°
Wind Chill: 58° Ceiling: 6000
Heat Index: 58° Visibility: 10mi
Dew Point: 35° Wind: 15mph
Humidity: 42% Direction: 330° (NNW)
Pressure: 29.81in Gusts: 0mph
Raw Report DataKDCA 271652Z 33013KT 10SM BKN060 OVC070 14/02 A2981 RMK AO2 SLP095 BINOVC T01440017
Traffic Incident Summary
Active as of:
Severity:
Category:
InformationThere was an issue retrieving the traffic information for this location. Please try a different location or try again shortly.
Advertisements
Track Severe Weather on mobile